sensor_id;sensor_type;location;lat;lon;timestamp;pressure;altitude;pressure_sealevel;temperature;humidity
45872;BME280;32333;55.844;-3.210;2023-05-23T00:01:50;100702.37;;;11.75;100.00
45872;BME280;32333;55.844;-3.210;2023-05-23T00:04:17;100704.25;;;11.46;100.00
45872;BME280;32333;55.844;-3.210;2023-05-23T00:06:44;100707.82;;;11.51;100.00
45872;BME280;32333;55.844;-3.210;2023-05-23T00:09:15;100709.32;;;11.71;100.00
45872;BME280;32333;55.844;-3.210;2023-05-23T00:11:43;100712.49;;;12.29;100.00
45872;BME280;32333;55.844;-3.210;2023-05-23T00:14:36;100709.49;;;11.12;100.00
45872;BME280;32333;55.844;-3.210;2023-05-23T00:17:04;100712.01;;;11.00;100.00
45872;BME280;32333;55.844;-3.210;2023-05-23T00:19:31;100714.28;;;10.91;100.00
45872;BME280;32333;55.844;-3.210;2023-05-23T00:22:00;100711.85;;;10.92;100.00
45872;BME280;32333;55.844;-3.210;2023-05-23T00:24:28;100713.80;;;10.89;100.00
45872;BME280;32333;55.844;-3.210;2023-05-23T00:26:55;100718.97;;;9.75;100.00
45872;BME280;32333;55.844;-3.210;2023-05-23T00:29:23;100712.64;;;11.02;100.00
45872;BME280;32333;55.844;-3.210;2023-05-23T00:31:51;100713.83;;;11.15;100.00
45872;BME280;32333;55.844;-3.210;2023-05-23T00:34:18;100710.31;;;10.90;100.00
45872;BME280;32333;55.844;-3.210;2023-05-23T00:36:53;100710.25;;;10.86;100.00
45872;BME280;32333;55.844;-3.210;2023-05-23T00:39:21;100714.24;;;9.92;100.00
45872;BME280;32333;55.844;-3.210;2023-05-23T00:41:49;100714.59;;;9.93;100.00
45872;BME280;32333;55.844;-3.210;2023-05-23T00:44:36;100714.20;;;9.83;100.00
45872;BME280;32333;55.844;-3.210;2023-05-23T00:47:06;100709.73;;;9.16;100.00
45872;BME280;32333;55.844;-3.210;2023-05-23T00:49:35;100714.38;;;9.63;100.00
45872;BME280;32333;55.844;-3.210;2023-05-23T00:52:04;100713.10;;;10.10;100.00
45872;BME280;32333;55.844;-3.210;2023-05-23T00:54:33;100713.04;;;10.06;100.00
45872;BME280;32333;55.844;-3.210;2023-05-23T00:57:00;100713.28;;;9.48;100.00
45872;BME280;32333;55.844;-3.210;2023-05-23T00:59:29;100712.71;;;10.18;100.00
45872;BME280;32333;55.844;-3.210;2023-05-23T01:01:59;100709.48;;;10.50;100.00
45872;BME280;32333;55.844;-3.210;2023-05-23T01:04:28;100706.41;;;10.34;100.00
45872;BME280;32333;55.844;-3.210;2023-05-23T01:06:56;100710.26;;;10.12;100.00
45872;BME280;32333;55.844;-3.210;2023-05-23T01:09:24;100713.68;;;9.38;100.00
45872;BME280;32333;55.844;-3.210;2023-05-23T01:12:00;100717.48;;;8.82;100.00
45872;BME280;32333;55.844;-3.210;2023-05-23T01:14:41;100718.15;;;9.85;100.00
45872;BME280;32333;55.844;-3.210;2023-05-23T01:17:18;100716.91;;;9.54;100.00
45872;BME280;32333;55.844;-3.210;2023-05-23T01:19:54;100720.01;;;9.78;100.00
45872;BME280;32333;55.844;-3.210;2023-05-23T01:22:35;100719.34;;;9.51;100.00
45872;BME280;32333;55.844;-3.210;2023-05-23T01:25:10;100721.11;;;8.52;100.00
45872;BME280;32333;55.844;-3.210;2023-05-23T01:27:46;100722.58;;;9.43;100.00
45872;BME280;32333;55.844;-3.210;2023-05-23T01:30:17;100723.03;;;9.80;100.00
45872;BME280;32333;55.844;-3.210;2023-05-23T01:32:49;100716.29;;;9.27;100.00
45872;BME280;32333;55.844;-3.210;2023-05-23T01:35:21;100708.12;;;10.42;100.00
45872;BME280;32333;55.844;-3.210;2023-05-23T01:37:49;100710.03;;;9.25;100.00
45872;BME280;32333;55.844;-3.210;2023-05-23T01:40:16;100709.12;;;9.56;100.00
45872;BME280;32333;55.844;-3.210;2023-05-23T01:44:35;100712.29;;;7.87;100.00
45872;BME280;32333;55.844;-3.210;2023-05-23T01:47:06;100716.10;;;9.73;100.00
45872;BME280;32333;55.844;-3.210;2023-05-23T01:49:36;100717.37;;;9.55;100.00
45872;BME280;32333;55.844;-3.210;2023-05-23T01:52:05;100718.99;;;9.44;100.00
45872;BME280;32333;55.844;-3.210;2023-05-23T01:54:35;100720.59;;;9.20;100.00
45872;BME280;32333;55.844;-3.210;2023-05-23T01:57:04;100715.00;;;9.22;100.00
45872;BME280;32333;55.844;-3.210;2023-05-23T01:59:33;100711.58;;;9.03;100.00
45872;BME280;32333;55.844;-3.210;2023-05-23T02:02:00;100710.03;;;9.51;100.00
45872;BME280;32333;55.844;-3.210;2023-05-23T02:04:28;100714.23;;;9.85;100.00
45872;BME280;32333;55.844;-3.210;2023-05-23T02:06:56;100714.09;;;9.74;100.00
45872;BME280;32333;55.844;-3.210;2023-05-23T02:09:24;100711.21;;;8.22;100.00
45872;BME280;32333;55.844;-3.210;2023-05-23T02:11:52;100715.69;;;9.19;100.00
45872;BME280;32333;55.844;-3.210;2023-05-23T02:14:35;100713.41;;;9.09;100.00
45872;BME280;32333;55.844;-3.210;2023-05-23T02:17:02;100718.33;;;9.74;100.00
45872;BME280;32333;55.844;-3.210;2023-05-23T02:19:30;100718.71;;;9.69;100.00
45872;BME280;32333;55.844;-3.210;2023-05-23T02:21:58;100721.66;;;9.46;100.00
45872;BME280;32333;55.844;-3.210;2023-05-23T02:24:25;100726.24;;;9.56;100.00
45872;BME280;32333;55.844;-3.210;2023-05-23T02:26:53;100730.40;;;8.15;100.00
45872;BME280;32333;55.844;-3.210;2023-05-23T02:29:21;100736.05;;;8.89;100.00
45872;BME280;32333;55.844;-3.210;2023-05-23T02:31:48;100739.56;;;8.98;100.00
45872;BME280;32333;55.844;-3.210;2023-05-23T02:34:16;100738.44;;;9.48;100.00
45872;BME280;32333;55.844;-3.210;2023-05-23T02:36:43;100732.18;;;9.19;100.00
45872;BME280;32333;55.844;-3.210;2023-05-23T02:39:11;100726.45;;;8.65;100.00
45872;BME280;32333;55.844;-3.210;2023-05-23T02:41:38;100724.27;;;8.88;100.00
45872;BME280;32333;55.844;-3.210;2023-05-23T02:44:35;100725.95;;;8.40;100.00
45872;BME280;32333;55.844;-3.210;2023-05-23T02:47:02;100724.78;;;9.09;100.00
45872;BME280;32333;55.844;-3.210;2023-05-23T02:49:30;100721.07;;;9.07;100.00
45872;BME280;32333;55.844;-3.210;2023-05-23T02:51:58;100721.05;;;9.53;100.00
45872;BME280;32333;55.844;-3.210;2023-05-23T02:54:26;100721.70;;;9.29;100.00
45872;BME280;32333;55.844;-3.210;2023-05-23T02:56:53;100720.53;;;8.25;100.00
45872;BME280;32333;55.844;-3.210;2023-05-23T02:59:20;100720.51;;;8.70;100.00
45872;BME280;32333;55.844;-3.210;2023-05-23T03:01:48;100714.60;;;7.83;100.00
45872;BME280;32333;55.844;-3.210;2023-05-23T03:04:15;100710.66;;;8.73;100.00
45872;BME280;32333;55.844;-3.210;2023-05-23T03:06:43;100712.82;;;8.54;100.00
45872;BME280;32333;55.844;-3.210;2023-05-23T03:09:10;100717.27;;;7.25;100.00
45872;BME280;32333;55.844;-3.210;2023-05-23T03:11:38;100717.82;;;8.07;100.00
45872;BME280;32333;55.844;-3.210;2023-05-23T03:14:36;100711.61;;;8.98;100.00
45872;BME280;32333;55.844;-3.210;2023-05-23T03:17:04;100707.53;;;8.40;100.00
45872;BME280;32333;55.844;-3.210;2023-05-23T03:19:31;100702.90;;;7.99;100.00
45872;BME280;32333;55.844;-3.210;2023-05-23T03:22:00;100703.12;;;7.99;100.00
45872;BME280;32333;55.844;-3.210;2023-05-23T03:24:27;100700.59;;;8.44;100.00
45872;BME280;32333;55.844;-3.210;2023-05-23T03:26:55;100693.73;;;8.34;100.00
45872;BME280;32333;55.844;-3.210;2023-05-23T03:29:22;100695.70;;;7.06;100.00
45872;BME280;32333;55.844;-3.210;2023-05-23T03:31:50;100693.89;;;9.55;100.00
45872;BME280;32333;55.844;-3.210;2023-05-23T03:34:17;100694.19;;;8.18;100.00
45872;BME280;32333;55.844;-3.210;2023-05-23T03:36:45;100692.27;;;8.43;100.00
45872;BME280;32333;55.844;-3.210;2023-05-23T03:39:13;100689.98;;;7.96;100.00
45872;BME280;32333;55.844;-3.210;2023-05-23T03:41:41;100690.20;;;8.36;100.00
45872;BME280;32333;55.844;-3.210;2023-05-23T03:44:35;100690.79;;;8.27;100.00
45872;BME280;32333;55.844;-3.210;2023-05-23T03:47:03;100688.48;;;8.30;100.00
45872;BME280;32333;55.844;-3.210;2023-05-23T03:49:31;100694.13;;;8.11;100.00
45872;BME280;32333;55.844;-3.210;2023-05-23T03:51:58;100692.33;;;7.90;100.00
45872;BME280;32333;55.844;-3.210;2023-05-23T03:54:25;100687.45;;;7.70;100.00
45872;BME280;32333;55.844;-3.210;2023-05-23T03:56:54;100687.65;;;8.52;100.00
45872;BME280;32333;55.844;-3.210;2023-05-23T03:59:21;100686.10;;;8.28;100.00
45872;BME280;32333;55.844;-3.210;2023-05-23T04:01:49;100681.93;;;7.83;100.00
45872;BME280;32333;55.844;-3.210;2023-05-23T04:04:16;100686.34;;;7.63;100.00
45872;BME280;32333;55.844;-3.210;2023-05-23T04:06:43;100687.72;;;8.32;100.00
45872;BME280;32333;55.844;-3.210;2023-05-23T04:09:10;100689.18;;;7.84;100.00
45872;BME280;32333;55.844;-3.210;2023-05-23T04:11:39;100691.39;;;8.46;100.00
45872;BME280;32333;55.844;-3.210;2023-05-23T04:14:36;100692.47;;;8.71;100.00
45872;BME280;32333;55.844;-3.210;2023-05-23T04:17:05;100693.92;;;7.34;100.00
45872;BME280;32333;55.844;-3.210;2023-05-23T04:19:32;100691.26;;;7.28;100.00
45872;BME280;32333;55.844;-3.210;2023-05-23T04:21:59;100691.72;;;6.21;100.00
45872;BME280;32333;55.844;-3.210;2023-05-23T04:24:27;100691.81;;;7.75;100.00
45872;BME280;32333;55.844;-3.210;2023-05-23T04:26:54;100690.85;;;7.25;100.00
45872;BME280;32333;55.844;-3.210;2023-05-23T04:29:21;100688.92;;;7.38;100.00
45872;BME280;32333;55.844;-3.210;2023-05-23T04:31:48;100688.26;;;7.25;100.00
45872;BME280;32333;55.844;-3.210;2023-05-23T04:34:16;100685.97;;;7.00;100.00
45872;BME280;32333;55.844;-3.210;2023-05-23T04:36:43;100682.48;;;8.46;100.00
45872;BME280;32333;55.844;-3.210;2023-05-23T04:39:11;100682.95;;;8.34;100.00
45872;BME280;32333;55.844;-3.210;2023-05-23T04:41:38;100684.48;;;8.99;100.00
45872;BME280;32333;55.844;-3.210;2023-05-23T04:44:35;100683.57;;;9.00;100.00
45872;BME280;32333;55.844;-3.210;2023-05-23T04:47:03;100682.66;;;9.42;100.00
45872;BME280;32333;55.844;-3.210;2023-05-23T04:49:30;100683.31;;;9.64;100.00
45872;BME280;32333;55.844;-3.210;2023-05-23T04:51:58;100683.23;;;10.16;100.00
45872;BME280;32333;55.844;-3.210;2023-05-23T04:54:26;100679.78;;;10.69;100.00
45872;BME280;32333;55.844;-3.210;2023-05-23T04:56:53;100676.19;;;11.65;100.00
45872;BME280;32333;55.844;-3.210;2023-05-23T04:59:20;100674.88;;;10.88;100.00
45872;BME280;32333;55.844;-3.210;2023-05-23T05:01:48;100672.02;;;11.65;100.00
45872;BME280;32333;55.844;-3.210;2023-05-23T05:04:15;100666.95;;;11.01;100.00
45872;BME280;32333;55.844;-3.210;2023-05-23T05:06:43;100663.54;;;12.21;100.00
45872;BME280;32333;55.844;-3.210;2023-05-23T05:09:11;100665.45;;;10.58;100.00
45872;BME280;32333;55.844;-3.210;2023-05-23T05:11:39;100671.18;;;10.90;100.00
45872;BME280;32333;55.844;-3.210;2023-05-23T05:14:36;100672.67;;;11.37;100.00
45872;BME280;32333;55.844;-3.210;2023-05-23T05:17:03;100674.42;;;10.41;100.00
45872;BME280;32333;55.844;-3.210;2023-05-23T05:19:31;100677.41;;;9.84;100.00
45872;BME280;32333;55.844;-3.210;2023-05-23T05:21:59;100678.02;;;10.71;100.00
45872;BME280;32333;55.844;-3.210;2023-05-23T05:24:26;100681.00;;;11.05;100.00
45872;BME280;32333;55.844;-3.210;2023-05-23T05:26:54;100688.72;;;9.31;100.00
45872;BME280;32333;55.844;-3.210;2023-05-23T05:29:22;100681.93;;;10.74;100.00
45872;BME280;32333;55.844;-3.210;2023-05-23T05:31:50;100683.68;;;8.34;100.00
45872;BME280;32333;55.844;-3.210;2023-05-23T05:34:18;100678.44;;;9.85;100.00
45872;BME280;32333;55.844;-3.210;2023-05-23T05:36:46;100680.26;;;10.33;100.00
45872;BME280;32333;55.844;-3.210;2023-05-23T05:39:14;100683.27;;;8.21;100.00
45872;BME280;32333;55.844;-3.210;2023-05-23T05:41:41;100684.66;;;9.38;100.00
45872;BME280;32333;55.844;-3.210;2023-05-23T05:44:35;100681.74;;;11.12;100.00
45872;BME280;32333;55.844;-3.210;2023-05-23T05:47:02;100686.75;;;9.78;100.00
45872;BME280;32333;55.844;-3.210;2023-05-23T05:49:30;100685.34;;;10.43;100.00
45872;BME280;32333;55.844;-3.210;2023-05-23T05:51:57;100685.67;;;9.93;100.00
45872;BME280;32333;55.844;-3.210;2023-05-23T05:54:24;100683.70;;;11.12;100.00
45872;BME280;32333;55.844;-3.210;2023-05-23T05:56:53;100686.99;;;10.17;100.00
45872;BME280;32333;55.844;-3.210;2023-05-23T05:59:21;100695.71;;;9.51;100.00
45872;BME280;32333;55.844;-3.210;2023-05-23T06:01:48;100686.19;;;10.75;100.00
45872;BME280;32333;55.844;-3.210;2023-05-23T06:04:16;100689.09;;;11.73;100.00
45872;BME280;32333;55.844;-3.210;2023-05-23T06:06:44;100686.23;;;10.72;100.00
45872;BME280;32333;55.844;-3.210;2023-05-23T06:09:14;100686.04;;;10.32;100.00
45872;BME280;32333;55.844;-3.210;2023-05-23T06:11:41;100682.15;;;10.23;100.00
45872;BME280;32333;55.844;-3.210;2023-05-23T06:14:35;100680.05;;;10.45;100.00
45872;BME280;32333;55.844;-3.210;2023-05-23T06:17:03;100673.36;;;10.64;100.00
45872;BME280;32333;55.844;-3.210;2023-05-23T06:19:31;100671.17;;;10.68;100.00
45872;BME280;32333;55.844;-3.210;2023-05-23T06:21:59;100674.06;;;11.25;100.00
45872;BME280;32333;55.844;-3.210;2023-05-23T06:24:26;100676.82;;;11.88;100.00
45872;BME280;32333;55.844;-3.210;2023-05-23T06:26:54;100676.11;;;11.18;100.00
45872;BME280;32333;55.844;-3.210;2023-05-23T06:29:22;100676.66;;;10.95;100.00
45872;BME280;32333;55.844;-3.210;2023-05-23T06:31:49;100676.78;;;11.55;100.00
45872;BME280;32333;55.844;-3.210;2023-05-23T06:34:16;100679.89;;;11.58;100.00
45872;BME280;32333;55.844;-3.210;2023-05-23T06:36:44;100679.40;;;11.88;100.00
45872;BME280;32333;55.844;-3.210;2023-05-23T06:39:11;100679.69;;;11.54;100.00
45872;BME280;32333;55.844;-3.210;2023-05-23T06:41:38;100679.12;;;10.31;100.00
45872;BME280;32333;55.844;-3.210;2023-05-23T06:44:35;100677.06;;;10.25;100.00
45872;BME280;32333;55.844;-3.210;2023-05-23T06:47:03;100676.58;;;10.97;100.00
45872;BME280;32333;55.844;-3.210;2023-05-23T06:49:30;100675.48;;;11.82;100.00
45872;BME280;32333;55.844;-3.210;2023-05-23T06:51:58;100675.24;;;11.07;100.00
45872;BME280;32333;55.844;-3.210;2023-05-23T06:54:25;100673.05;;;11.90;100.00
45872;BME280;32333;55.844;-3.210;2023-05-23T06:56:53;100672.27;;;10.68;100.00
45872;BME280;32333;55.844;-3.210;2023-05-23T06:59:22;100675.29;;;11.16;100.00
45872;BME280;32333;55.844;-3.210;2023-05-23T07:01:49;100673.84;;;11.65;100.00
45872;BME280;32333;55.844;-3.210;2023-05-23T07:04:17;100676.65;;;11.41;100.00
45872;BME280;32333;55.844;-3.210;2023-05-23T07:06:44;100678.90;;;10.92;100.00
45872;BME280;32333;55.844;-3.210;2023-05-23T07:09:12;100680.25;;;10.74;100.00
45872;BME280;32333;55.844;-3.210;2023-05-23T07:11:39;100686.00;;;10.08;100.00
45872;BME280;32333;55.844;-3.210;2023-05-23T07:14:35;100697.45;;;9.72;100.00
45872;BME280;32333;55.844;-3.210;2023-05-23T07:17:03;100688.54;;;10.17;100.00
45872;BME280;32333;55.844;-3.210;2023-05-23T07:19:30;100694.93;;;11.40;100.00
45872;BME280;32333;55.844;-3.210;2023-05-23T07:21:59;100696.97;;;11.81;100.00
45872;BME280;32333;55.844;-3.210;2023-05-23T07:24:26;100700.18;;;11.71;100.00
45872;BME280;32333;55.844;-3.210;2023-05-23T07:26:54;100701.08;;;11.56;100.00
45872;BME280;32333;55.844;-3.210;2023-05-23T07:29:22;100700.80;;;10.94;100.00
45872;BME280;32333;55.844;-3.210;2023-05-23T07:31:49;100692.68;;;11.40;100.00
45872;BME280;32333;55.844;-3.210;2023-05-23T07:34:17;100691.17;;;11.34;100.00
45872;BME280;32333;55.844;-3.210;2023-05-23T07:36:44;100684.90;;;11.60;100.00
45872;BME280;32333;55.844;-3.210;2023-05-23T07:39:11;100676.62;;;11.60;100.00
45872;BME280;32333;55.844;-3.210;2023-05-23T07:41:39;100678.24;;;11.77;100.00
45872;BME280;32333;55.844;-3.210;2023-05-23T07:44:36;100677.44;;;11.14;100.00
45872;BME280;32333;55.844;-3.210;2023-05-23T07:47:04;100682.12;;;10.88;100.00
45872;BME280;32333;55.844;-3.210;2023-05-23T07:49:32;100685.31;;;11.33;100.00
45872;BME280;32333;55.844;-3.210;2023-05-23T07:51:59;100686.35;;;11.02;100.00
45872;BME280;32333;55.844;-3.210;2023-05-23T07:54:26;100688.14;;;11.01;100.00
45872;BME280;32333;55.844;-3.210;2023-05-23T07:56:54;100684.94;;;11.15;100.00
45872;BME280;32333;55.844;-3.210;2023-05-23T08:04:48;100686.23;;;10.57;100.00
45872;BME280;32333;55.844;-3.210;2023-05-23T08:07:16;100684.14;;;11.28;100.00
45872;BME280;32333;55.844;-3.210;2023-05-23T08:09:43;100686.13;;;10.46;100.00
45872;BME280;32333;55.844;-3.210;2023-05-23T08:14:36;100687.53;;;11.76;100.00
45872;BME280;32333;55.844;-3.210;2023-05-23T08:17:04;100690.70;;;11.51;100.00
45872;BME280;32333;55.844;-3.210;2023-05-23T08:19:33;100686.60;;;11.78;100.00
45872;BME280;32333;55.844;-3.210;2023-05-23T08:22:01;100680.85;;;11.83;100.00
45872;BME280;32333;55.844;-3.210;2023-05-23T08:24:35;100675.72;;;11.38;100.00
45872;BME280;32333;55.844;-3.210;2023-05-23T08:27:03;100679.92;;;11.85;100.00
45872;BME280;32333;55.844;-3.210;2023-05-23T08:29:33;100681.36;;;12.61;100.00
45872;BME280;32333;55.844;-3.210;2023-05-23T08:32:02;100677.24;;;12.46;100.00
45872;BME280;32333;55.844;-3.210;2023-05-23T08:34:29;100679.12;;;12.79;100.00
45872;BME280;32333;55.844;-3.210;2023-05-23T08:36:57;100681.21;;;12.93;100.00
45872;BME280;32333;55.844;-3.210;2023-05-23T08:39:25;100680.81;;;13.05;100.00
45872;BME280;32333;55.844;-3.210;2023-05-23T08:41:54;100685.23;;;12.23;100.00
45872;BME280;32333;55.844;-3.210;2023-05-23T08:44:36;100683.11;;;13.27;100.00
45872;BME280;32333;55.844;-3.210;2023-05-23T08:47:03;100674.15;;;11.95;100.00
45872;BME280;32333;55.844;-3.210;2023-05-23T08:49:31;100674.53;;;12.20;100.00
45872;BME280;32333;55.844;-3.210;2023-05-23T08:52:01;100673.45;;;13.28;100.00
45872;BME280;32333;55.844;-3.210;2023-05-23T08:54:31;100678.29;;;13.82;100.00
45872;BME280;32333;55.844;-3.210;2023-05-23T08:57:06;100672.30;;;12.89;100.00
45872;BME280;32333;55.844;-3.210;2023-05-23T08:59:34;100668.62;;;13.43;100.00
45872;BME280;32333;55.844;-3.210;2023-05-23T09:02:07;100661.02;;;12.96;100.00
45872;BME280;32333;55.844;-3.210;2023-05-23T09:04:37;100660.57;;;12.74;100.00
45872;BME280;32333;55.844;-3.210;2023-05-23T09:07:05;100662.94;;;13.43;97.74
45872;BME280;32333;55.844;-3.210;2023-05-23T09:09:42;100656.82;;;12.47;95.95
45872;BME280;32333;55.844;-3.210;2023-05-23T09:14:35;100653.80;;;13.44;97.08
45872;BME280;32333;55.844;-3.210;2023-05-23T09:17:04;100649.92;;;13.30;91.97
45872;BME280;32333;55.844;-3.210;2023-05-23T09:19:31;100644.89;;;15.23;85.91
45872;BME280;32333;55.844;-3.210;2023-05-23T09:22:01;100643.61;;;15.55;78.32
45872;BME280;32333;55.844;-3.210;2023-05-23T09:24:33;100641.54;;;16.29;80.69
45872;BME280;32333;55.844;-3.210;2023-05-23T09:27:01;100630.10;;;16.63;76.04
45872;BME280;32333;55.844;-3.210;2023-05-23T09:29:29;100633.54;;;16.25;76.54
45872;BME280;32333;55.844;-3.210;2023-05-23T09:31:59;100625.78;;;16.18;79.50
45872;BME280;32333;55.844;-3.210;2023-05-23T09:34:40;100614.74;;;16.99;75.81
45872;BME280;32333;55.844;-3.210;2023-05-23T09:37:10;100621.80;;;16.40;75.76
45872;BME280;32333;55.844;-3.210;2023-05-23T09:39:38;100615.88;;;17.58;70.17
45872;BME280;32333;55.844;-3.210;2023-05-23T09:44:40;100621.63;;;15.94;74.23
45872;BME280;32333;55.844;-3.210;2023-05-23T09:47:08;100626.94;;;16.06;75.28
45872;BME280;32333;55.844;-3.210;2023-05-23T09:49:38;100621.83;;;16.21;73.58
45872;BME280;32333;55.844;-3.210;2023-05-23T09:52:05;100616.77;;;16.06;76.84
45872;BME280;32333;55.844;-3.210;2023-05-23T09:54:34;100611.61;;;17.77;69.25
45872;BME280;32333;55.844;-3.210;2023-05-23T09:57:03;100607.65;;;16.39;72.31
45872;BME280;32333;55.844;-3.210;2023-05-23T09:59:34;100601.48;;;15.82;78.45
45872;BME280;32333;55.844;-3.210;2023-05-23T10:02:06;100596.17;;;15.52;78.60
45872;BME280;32333;55.844;-3.210;2023-05-23T10:04:37;100598.08;;;15.28;78.49
45872;BME280;32333;55.844;-3.210;2023-05-23T10:07:11;100594.41;;;17.90;76.46
45872;BME280;32333;55.844;-3.210;2023-05-23T10:09:41;100596.89;;;17.94;72.47
45872;BME280;32333;55.844;-3.210;2023-05-23T10:14:39;100588.58;;;18.97;63.63
45872;BME280;32333;55.844;-3.210;2023-05-23T10:17:09;100591.25;;;19.84;62.57
45872;BME280;32333;55.844;-3.210;2023-05-23T10:19:42;100588.53;;;19.46;64.39
45872;BME280;32333;55.844;-3.210;2023-05-23T10:22:12;100583.71;;;19.00;60.46
45872;BME280;32333;55.844;-3.210;2023-05-23T10:24:44;100585.73;;;19.97;60.28
45872;BME280;32333;55.844;-3.210;2023-05-23T10:27:13;100579.30;;;18.48;62.53
45872;BME280;32333;55.844;-3.210;2023-05-23T10:29:43;100579.89;;;17.63;68.14
45872;BME280;32333;55.844;-3.210;2023-05-23T10:32:12;100588.80;;;17.87;65.36
45872;BME280;32333;55.844;-3.210;2023-05-23T10:34:45;100586.14;;;17.92;63.33
45872;BME280;32333;55.844;-3.210;2023-05-23T10:37:22;100587.90;;;16.30;68.48
45872;BME280;32333;55.844;-3.210;2023-05-23T10:39:58;100590.98;;;17.74;67.02
45872;BME280;32333;55.844;-3.210;2023-05-23T10:44:35;100585.42;;;16.46;68.80
45872;BME280;32333;55.844;-3.210;2023-05-23T10:47:03;100584.71;;;16.57;70.33
45872;BME280;32333;55.844;-3.210;2023-05-23T10:49:40;100577.47;;;17.94;66.90
45872;BME280;32333;55.844;-3.210;2023-05-23T10:52:09;100578.24;;;18.25;67.62
45872;BME280;32333;55.844;-3.210;2023-05-23T10:54:42;100577.88;;;17.25;67.43
45872;BME280;32333;55.844;-3.210;2023-05-23T10:57:14;100588.86;;;16.58;69.80
45872;BME280;32333;55.844;-3.210;2023-05-23T10:59:43;100576.60;;;18.36;67.91
45872;BME280;32333;55.844;-3.210;2023-05-23T11:02:12;100570.50;;;18.94;68.71
45872;BME280;32333;55.844;-3.210;2023-05-23T11:04:41;100575.47;;;18.13;72.27
45872;BME280;32333;55.844;-3.210;2023-05-23T11:07:29;100563.66;;;17.65;67.79
45872;BME280;32333;55.844;-3.210;2023-05-23T11:10:08;100571.34;;;18.88;63.31
45872;BME280;32333;55.844;-3.210;2023-05-23T11:14:52;100563.20;;;17.62;67.62
45872;BME280;32333;55.844;-3.210;2023-05-23T11:17:30;100564.96;;;17.16;65.70
45872;BME280;32333;55.844;-3.210;2023-05-23T11:20:03;100554.66;;;18.12;68.83
45872;BME280;32333;55.844;-3.210;2023-05-23T11:22:33;100551.65;;;18.50;64.65
45872;BME280;32333;55.844;-3.210;2023-05-23T11:25:06;100550.00;;;19.04;64.12
45872;BME280;32333;55.844;-3.210;2023-05-23T11:27:36;100548.54;;;19.07;62.08
45872;BME280;32333;55.844;-3.210;2023-05-23T11:30:09;100543.24;;;18.78;64.84
45872;BME280;32333;55.844;-3.210;2023-05-23T11:33:29;100540.30;;;19.06;64.11
45872;BME280;32333;55.844;-3.210;2023-05-23T11:35:58;100544.50;;;19.26;65.65
45872;BME280;32333;55.844;-3.210;2023-05-23T11:39:26;100538.07;;;17.52;64.38
45872;BME280;32333;55.844;-3.210;2023-05-23T11:41:58;100540.85;;;18.20;64.97
45872;BME280;32333;55.844;-3.210;2023-05-23T11:44:35;100547.76;;;16.46;71.02
45872;BME280;32333;55.844;-3.210;2023-05-23T11:47:05;100541.66;;;17.70;68.19
45872;BME280;32333;55.844;-3.210;2023-05-23T11:49:37;100544.22;;;17.48;68.61
45872;BME280;32333;55.844;-3.210;2023-05-23T11:52:06;100539.30;;;17.88;66.86
45872;BME280;32333;55.844;-3.210;2023-05-23T11:54:34;100532.68;;;17.95;64.07
45872;BME280;32333;55.844;-3.210;2023-05-23T11:57:02;100529.20;;;17.86;66.45
45872;BME280;32333;55.844;-3.210;2023-05-23T11:59:31;100546.18;;;17.27;68.18
45872;BME280;32333;55.844;-3.210;2023-05-23T12:02:01;100541.43;;;17.46;68.18
45872;BME280;32333;55.844;-3.210;2023-05-23T12:04:29;100541.53;;;17.61;67.54
45872;BME280;32333;55.844;-3.210;2023-05-23T12:06:58;100543.71;;;16.15;67.98
45872;BME280;32333;55.844;-3.210;2023-05-23T12:09:25;100541.99;;;16.43;65.01
45872;BME280;32333;55.844;-3.210;2023-05-23T12:11:53;100548.08;;;17.46;64.90
45872;BME280;32333;55.844;-3.210;2023-05-23T12:14:35;100551.42;;;17.03;65.85
45872;BME280;32333;55.844;-3.210;2023-05-23T12:17:03;100545.14;;;17.04;66.86
45872;BME280;32333;55.844;-3.210;2023-05-23T12:19:32;100539.12;;;17.60;63.53
45872;BME280;32333;55.844;-3.210;2023-05-23T12:22:05;100531.55;;;17.14;64.49
45872;BME280;32333;55.844;-3.210;2023-05-23T12:24:33;100524.12;;;17.99;63.84
45872;BME280;32333;55.844;-3.210;2023-05-23T12:27:02;100531.14;;;17.20;68.40
45872;BME280;32333;55.844;-3.210;2023-05-23T12:29:32;100540.80;;;17.33;68.75
45872;BME280;32333;55.844;-3.210;2023-05-23T12:32:00;100547.12;;;17.31;68.32
45872;BME280;32333;55.844;-3.210;2023-05-23T12:34:29;100534.90;;;17.19;67.56
45872;BME280;32333;55.844;-3.210;2023-05-23T12:36:59;100531.65;;;17.75;65.79
45872;BME280;32333;55.844;-3.210;2023-05-23T12:39:28;100510.87;;;17.78;65.18
45872;BME280;32333;55.844;-3.210;2023-05-23T12:44:35;100530.48;;;18.16;66.78
45872;BME280;32333;55.844;-3.210;2023-05-23T12:47:03;100526.93;;;18.27;64.86
45872;BME280;32333;55.844;-3.210;2023-05-23T12:49:31;100529.46;;;16.76;67.45
45872;BME280;32333;55.844;-3.210;2023-05-23T12:51:59;100520.18;;;16.11;73.33
45872;BME280;32333;55.844;-3.210;2023-05-23T12:54:27;100527.34;;;17.09;71.32
45872;BME280;32333;55.844;-3.210;2023-05-23T12:56:54;100531.44;;;16.46;70.93
45872;BME280;32333;55.844;-3.210;2023-05-23T12:59:22;100533.67;;;16.65;73.73
45872;BME280;32333;55.844;-3.210;2023-05-23T13:01:50;100535.61;;;16.37;72.60
45872;BME280;32333;55.844;-3.210;2023-05-23T13:04:18;100534.22;;;16.89;74.09
45872;BME280;32333;55.844;-3.210;2023-05-23T13:06:46;100536.65;;;17.41;72.91
45872;BME280;32333;55.844;-3.210;2023-05-23T13:09:14;100533.71;;;16.39;75.39
45872;BME280;32333;55.844;-3.210;2023-05-23T13:11:41;100535.39;;;16.48;74.08
45872;BME280;32333;55.844;-3.210;2023-05-23T13:14:35;100534.11;;;16.32;74.21
45872;BME280;32333;55.844;-3.210;2023-05-23T13:17:03;100535.14;;;16.28;76.22